sensor_id;sensor_type;location;lat;lon;timestamp;pressure;altitude;pressure_sealevel;temperature;humidity
72110;BME280;59983;52.010;5.420;2023-05-22T00:01:03;101551.31;;;16.79;100.00
72110;BME280;59983;52.010;5.420;2023-05-22T00:03:32;101550.94;;;16.80;100.00
72110;BME280;59983;52.010;5.420;2023-05-22T00:05:59;101541.16;;;16.79;100.00
72110;BME280;59983;52.010;5.420;2023-05-22T00:08:26;101537.56;;;16.75;100.00
72110;BME280;59983;52.010;5.420;2023-05-22T00:10:55;101525.31;;;16.69;100.00
72110;BME280;59983;52.010;5.420;2023-05-22T00:13:22;101521.72;;;16.65;100.00
72110;BME280;59983;52.010;5.420;2023-05-22T00:15:48;101524.59;;;16.72;100.00
72110;BME280;59983;52.010;5.420;2023-05-22T00:18:15;101529.19;;;16.68;100.00
72110;BME280;59983;52.010;5.420;2023-05-22T00:20:42;101522.38;;;16.55;100.00
72110;BME280;59983;52.010;5.420;2023-05-22T00:23:12;101525.88;;;16.55;100.00
72110;BME280;59983;52.010;5.420;2023-05-22T00:25:41;101515.19;;;16.47;100.00
72110;BME280;59983;52.010;5.420;2023-05-22T00:28:07;101509.66;;;16.43;100.00
72110;BME280;59983;52.010;5.420;2023-05-22T00:30:35;101515.56;;;16.45;100.00
72110;BME280;59983;52.010;5.420;2023-05-22T00:33:02;101508.94;;;16.46;100.00
72110;BME280;59983;52.010;5.420;2023-05-22T00:35:29;101511.34;;;16.51;100.00
72110;BME280;59983;52.010;5.420;2023-05-22T00:37:56;101501.91;;;16.49;100.00
72110;BME280;59983;52.010;5.420;2023-05-22T00:40:22;101505.03;;;16.47;100.00
72110;BME280;59983;52.010;5.420;2023-05-22T00:42:49;101505.16;;;16.54;100.00
72110;BME280;59983;52.010;5.420;2023-05-22T00:45:16;101507.50;;;16.56;100.00
72110;BME280;59983;52.010;5.420;2023-05-22T00:47:42;101503.56;;;16.53;100.00
72110;BME280;59983;52.010;5.420;2023-05-22T00:50:09;101511.34;;;16.51;100.00
72110;BME280;59983;52.010;5.420;2023-05-22T00:52:39;101504.34;;;16.54;100.00
72110;BME280;59983;52.010;5.420;2023-05-22T00:55:07;101499.66;;;16.54;100.00
72110;BME280;59983;52.010;5.420;2023-05-22T00:57:35;101494.56;;;16.53;100.00
72110;BME280;59983;52.010;5.420;2023-05-22T01:00:03;101492.53;;;16.50;100.00
72110;BME280;59983;52.010;5.420;2023-05-22T01:02:31;101488.56;;;16.43;100.00
72110;BME280;59983;52.010;5.420;2023-05-22T01:04:58;101491.72;;;16.46;100.00
72110;BME280;59983;52.010;5.420;2023-05-22T01:07:25;101498.75;;;16.47;100.00
72110;BME280;59983;52.010;5.420;2023-05-22T01:09:51;101495.94;;;16.43;100.00
72110;BME280;59983;52.010;5.420;2023-05-22T01:12:41;101492.75;;;16.37;100.00
72110;BME280;59983;52.010;5.420;2023-05-22T01:15:37;101502.03;;;16.29;100.00
72110;BME280;59983;52.010;5.420;2023-05-22T01:18:12;101509.88;;;16.31;100.00
72110;BME280;59983;52.010;5.420;2023-05-22T01:21:02;101511.19;;;16.40;100.00
72110;BME280;59983;52.010;5.420;2023-05-22T01:23:53;101509.22;;;16.41;100.00
72110;BME280;59983;52.010;5.420;2023-05-22T01:29:11;101520.72;;;16.50;100.00
72110;BME280;59983;52.010;5.420;2023-05-22T01:31:40;101510.22;;;16.52;100.00
72110;BME280;59983;52.010;5.420;2023-05-22T01:34:09;101514.78;;;16.45;100.00
72110;BME280;59983;52.010;5.420;2023-05-22T01:36:37;101513.91;;;16.40;100.00
72110;BME280;59983;52.010;5.420;2023-05-22T01:39:04;101519.88;;;16.46;100.00
72110;BME280;59983;52.010;5.420;2023-05-22T01:41:33;101522.00;;;16.56;100.00
72110;BME280;59983;52.010;5.420;2023-05-22T01:44:00;101518.88;;;16.58;100.00
72110;BME280;59983;52.010;5.420;2023-05-22T01:46:28;101512.19;;;16.55;100.00
72110;BME280;59983;52.010;5.420;2023-05-22T01:48:56;101499.59;;;16.51;100.00
72110;BME280;59983;52.010;5.420;2023-05-22T01:54:42;101501.63;;;16.54;100.00
72110;BME280;59983;52.010;5.420;2023-05-22T01:57:18;101484.44;;;16.57;100.00
72110;BME280;59983;52.010;5.420;2023-05-22T01:59:55;101487.66;;;16.62;100.00
72110;BME280;59983;52.010;5.420;2023-05-22T02:02:25;101486.50;;;16.63;100.00
72110;BME280;59983;52.010;5.420;2023-05-22T02:04:58;101478.56;;;16.58;100.00
72110;BME280;59983;52.010;5.420;2023-05-22T02:07:26;101478.53;;;16.55;100.00
72110;BME280;59983;52.010;5.420;2023-05-22T02:09:54;101468.75;;;16.54;100.00
72110;BME280;59983;52.010;5.420;2023-05-22T02:12:22;101457.41;;;16.55;100.00
72110;BME280;59983;52.010;5.420;2023-05-22T02:14:50;101455.06;;;16.54;100.00
72110;BME280;59983;52.010;5.420;2023-05-22T02:17:17;101466.38;;;16.52;100.00
72110;BME280;59983;52.010;5.420;2023-05-22T02:19:44;101468.31;;;16.52;100.00
72110;BME280;59983;52.010;5.420;2023-05-22T02:22:10;101475.28;;;16.46;100.00
72110;BME280;59983;52.010;5.420;2023-05-22T02:24:49;101470.09;;;16.40;100.00
72110;BME280;59983;52.010;5.420;2023-05-22T02:27:16;101469.00;;;16.45;100.00
72110;BME280;59983;52.010;5.420;2023-05-22T02:29:42;101466.97;;;16.38;100.00
72110;BME280;59983;52.010;5.420;2023-05-22T02:32:09;101461.75;;;16.30;100.00
72110;BME280;59983;52.010;5.420;2023-05-22T02:34:35;101463.69;;;16.29;100.00
72110;BME280;59983;52.010;5.420;2023-05-22T02:37:03;101463.31;;;16.31;100.00
72110;BME280;59983;52.010;5.420;2023-05-22T02:39:30;101463.81;;;16.36;100.00
72110;BME280;59983;52.010;5.420;2023-05-22T02:41:56;101462.94;;;16.32;100.00
72110;BME280;59983;52.010;5.420;2023-05-22T02:44:23;101459.75;;;16.27;100.00
72110;BME280;59983;52.010;5.420;2023-05-22T02:46:49;101454.53;;;16.18;100.00
72110;BME280;59983;52.010;5.420;2023-05-22T02:49:16;101468.91;;;16.11;100.00
72110;BME280;59983;52.010;5.420;2023-05-22T02:51:42;101459.09;;;16.10;100.00
72110;BME280;59983;52.010;5.420;2023-05-22T02:54:13;101459.03;;;16.07;100.00
72110;BME280;59983;52.010;5.420;2023-05-22T02:56:41;101452.78;;;16.06;100.00
72110;BME280;59983;52.010;5.420;2023-05-22T02:59:08;101455.47;;;16.03;100.00
72110;BME280;59983;52.010;5.420;2023-05-22T03:01:35;101453.41;;;15.96;100.00
72110;BME280;59983;52.010;5.420;2023-05-22T03:04:02;101456.09;;;15.93;100.00
72110;BME280;59983;52.010;5.420;2023-05-22T03:06:28;101453.34;;;15.93;100.00
72110;BME280;59983;52.010;5.420;2023-05-22T03:08:55;101449.13;;;15.99;100.00
72110;BME280;59983;52.010;5.420;2023-05-22T03:11:22;101451.88;;;15.99;100.00
72110;BME280;59983;52.010;5.420;2023-05-22T03:13:48;101448.47;;;16.05;100.00
72110;BME280;59983;52.010;5.420;2023-05-22T03:16:15;101446.59;;;16.09;100.00
72110;BME280;59983;52.010;5.420;2023-05-22T03:18:42;101446.09;;;16.04;100.00
72110;BME280;59983;52.010;5.420;2023-05-22T03:21:08;101452.34;;;16.04;100.00
72110;BME280;59983;52.010;5.420;2023-05-22T03:23:35;101450.81;;;16.07;100.00
72110;BME280;59983;52.010;5.420;2023-05-22T03:26:01;101442.16;;;16.01;100.00
72110;BME280;59983;52.010;5.420;2023-05-22T03:28:28;101448.28;;;15.95;100.00
72110;BME280;59983;52.010;5.420;2023-05-22T03:30:54;101447.22;;;15.99;100.00
72110;BME280;59983;52.010;5.420;2023-05-22T03:33:21;101435.94;;;16.04;100.00
72110;BME280;59983;52.010;5.420;2023-05-22T03:35:48;101443.34;;;16.04;100.00
72110;BME280;59983;52.010;5.420;2023-05-22T03:38:15;101446.84;;;16.01;100.00
72110;BME280;59983;52.010;5.420;2023-05-22T03:40:41;101437.41;;;15.98;100.00
72110;BME280;59983;52.010;5.420;2023-05-22T03:43:08;101443.19;;;15.93;100.00
72110;BME280;59983;52.010;5.420;2023-05-22T03:45:34;101439.91;;;15.84;100.00
72110;BME280;59983;52.010;5.420;2023-05-22T03:48:01;101448.91;;;15.84;100.00
72110;BME280;59983;52.010;5.420;2023-05-22T03:50:28;101453.09;;;15.78;100.00
72110;BME280;59983;52.010;5.420;2023-05-22T03:52:54;101452.31;;;15.78;100.00
72110;BME280;59983;52.010;5.420;2023-05-22T03:55:21;101451.56;;;15.81;100.00
72110;BME280;59983;52.010;5.420;2023-05-22T03:57:47;101459.38;;;15.79;100.00
72110;BME280;59983;52.010;5.420;2023-05-22T04:00:14;101458.09;;;15.73;100.00
72110;BME280;59983;52.010;5.420;2023-05-22T04:02:42;101454.44;;;15.65;100.00
72110;BME280;59983;52.010;5.420;2023-05-22T04:05:10;101452.78;;;15.61;100.00
72110;BME280;59983;52.010;5.420;2023-05-22T04:07:37;101446.38;;;15.53;100.00
72110;BME280;59983;52.010;5.420;2023-05-22T04:10:04;101439.34;;;15.52;100.00
72110;BME280;59983;52.010;5.420;2023-05-22T04:12:31;101449.47;;;15.51;100.00
72110;BME280;59983;52.010;5.420;2023-05-22T04:14:58;101436.69;;;15.55;100.00
72110;BME280;59983;52.010;5.420;2023-05-22T04:17:30;101448.91;;;15.62;100.00
72110;BME280;59983;52.010;5.420;2023-05-22T04:19:57;101449.41;;;15.67;100.00
72110;BME280;59983;52.010;5.420;2023-05-22T04:22:28;101449.34;;;15.64;100.00
72110;BME280;59983;52.010;5.420;2023-05-22T04:24:56;101441.56;;;15.66;100.00
72110;BME280;59983;52.010;5.420;2023-05-22T04:27:22;101455.25;;;15.66;100.00
72110;BME280;59983;52.010;5.420;2023-05-22T04:29:50;101451.47;;;15.74;100.00
72110;BME280;59983;52.010;5.420;2023-05-22T04:32:16;101454.13;;;15.70;100.00
72110;BME280;59983;52.010;5.420;2023-05-22T04:34:48;101452.97;;;15.71;100.00
72110;BME280;59983;52.010;5.420;2023-05-22T04:37:19;101458.53;;;15.75;100.00
72110;BME280;59983;52.010;5.420;2023-05-22T04:39:46;101460.09;;;15.76;100.00
72110;BME280;59983;52.010;5.420;2023-05-22T04:42:12;101466.00;;;15.78;100.00
72110;BME280;59983;52.010;5.420;2023-05-22T04:44:40;101482.34;;;15.74;100.00
72110;BME280;59983;52.010;5.420;2023-05-22T04:47:07;101481.72;;;15.62;100.00
72110;BME280;59983;52.010;5.420;2023-05-22T04:49:40;101487.28;;;15.65;100.00
72110;BME280;59983;52.010;5.420;2023-05-22T04:52:07;101494.88;;;15.56;100.00
72110;BME280;59983;52.010;5.420;2023-05-22T04:54:37;101497.53;;;15.52;100.00
72110;BME280;59983;52.010;5.420;2023-05-22T04:57:08;101502.53;;;15.47;100.00
72110;BME280;59983;52.010;5.420;2023-05-22T04:59:35;101496.63;;;15.45;100.00
72110;BME280;59983;52.010;5.420;2023-05-22T05:02:05;101504.75;;;15.41;100.00
72110;BME280;59983;52.010;5.420;2023-05-22T05:04:32;101502.53;;;15.47;100.00
72110;BME280;59983;52.010;5.420;2023-05-22T05:06:59;101493.19;;;15.48;100.00
72110;BME280;59983;52.010;5.420;2023-05-22T05:09:25;101498.78;;;15.55;100.00
72110;BME280;59983;52.010;5.420;2023-05-22T05:11:53;101511.81;;;15.62;100.00
72110;BME280;59983;52.010;5.420;2023-05-22T05:14:20;101517.72;;;15.64;100.00
72110;BME280;59983;52.010;5.420;2023-05-22T05:16:46;101510.41;;;15.71;100.00
72110;BME280;59983;52.010;5.420;2023-05-22T05:19:13;101514.88;;;15.79;100.00
72110;BME280;59983;52.010;5.420;2023-05-22T05:21:40;101514.72;;;15.72;100.00
72110;BME280;59983;52.010;5.420;2023-05-22T05:24:07;101499.38;;;15.64;100.00
72110;BME280;59983;52.010;5.420;2023-05-22T05:26:34;101509.22;;;15.69;100.00
72110;BME280;59983;52.010;5.420;2023-05-22T05:29:00;101509.22;;;15.69;100.00
72110;BME280;59983;52.010;5.420;2023-05-22T05:31:27;101508.56;;;15.56;100.00
72110;BME280;59983;52.010;5.420;2023-05-22T05:33:53;101500.66;;;15.51;100.00
72110;BME280;59983;52.010;5.420;2023-05-22T05:36:23;101503.31;;;15.67;100.00
72110;BME280;59983;52.010;5.420;2023-05-22T05:38:50;101501.72;;;15.66;100.00
72110;BME280;59983;52.010;5.420;2023-05-22T05:41:17;101495.22;;;15.54;100.00
72110;BME280;59983;52.010;5.420;2023-05-22T05:43:44;101497.69;;;15.59;100.00
72110;BME280;59983;52.010;5.420;2023-05-22T05:46:11;101494.94;;;15.79;100.00
72110;BME280;59983;52.010;5.420;2023-05-22T05:48:38;101490.88;;;15.92;100.00
72110;BME280;59983;52.010;5.420;2023-05-22T05:51:05;101493.72;;;15.99;100.00
72110;BME280;59983;52.010;5.420;2023-05-22T05:53:32;101489.88;;;16.04;100.00
72110;BME280;59983;52.010;5.420;2023-05-22T05:55:58;101494.31;;;16.12;100.00
72110;BME280;59983;52.010;5.420;2023-05-22T05:58:25;101497.97;;;16.20;100.00
72110;BME280;59983;52.010;5.420;2023-05-22T06:00:51;101490.97;;;16.22;100.00
72110;BME280;59983;52.010;5.420;2023-05-22T06:03:18;101489.41;;;16.25;100.00
72110;BME280;59983;52.010;5.420;2023-05-22T06:05:44;101491.06;;;16.29;100.00
72110;BME280;59983;52.010;5.420;2023-05-22T06:08:11;101487.13;;;16.27;100.00
72110;BME280;59983;52.010;5.420;2023-05-22T06:10:38;101477.75;;;16.28;100.00
72110;BME280;59983;52.010;5.420;2023-05-22T06:13:05;101489.22;;;16.37;100.00
72110;BME280;59983;52.010;5.420;2023-05-22T06:15:32;101490.13;;;16.45;100.00
72110;BME280;59983;52.010;5.420;2023-05-22T06:17:59;101495.34;;;16.53;100.00
72110;BME280;59983;52.010;5.420;2023-05-22T06:20:27;101492.00;;;16.67;100.00
72110;BME280;59983;52.010;5.420;2023-05-22T06:22:54;101498.09;;;16.80;100.00
72110;BME280;59983;52.010;5.420;2023-05-22T06:25:21;101501.34;;;16.89;100.00
72110;BME280;59983;52.010;5.420;2023-05-22T06:27:49;101496.78;;;17.00;100.00
72110;BME280;59983;52.010;5.420;2023-05-22T06:30:15;101500.84;;;17.13;100.00
72110;BME280;59983;52.010;5.420;2023-05-22T06:33:04;101500.56;;;17.22;100.00
72110;BME280;59983;52.010;5.420;2023-05-22T06:35:31;101502.22;;;17.30;100.00
72110;BME280;59983;52.010;5.420;2023-05-22T06:37:57;101499.91;;;17.32;100.00
72110;BME280;59983;52.010;5.420;2023-05-22T06:40:24;101504.25;;;17.37;100.00
72110;BME280;59983;52.010;5.420;2023-05-22T06:42:51;101511.41;;;17.45;100.00
72110;BME280;59983;52.010;5.420;2023-05-22T06:45:18;101509.16;;;17.54;100.00
72110;BME280;59983;52.010;5.420;2023-05-22T06:47:45;101512.38;;;17.60;100.00
72110;BME280;59983;52.010;5.420;2023-05-22T06:50:12;101522.59;;;17.66;100.00
72110;BME280;59983;52.010;5.420;2023-05-22T06:52:38;101518.44;;;17.76;100.00
72110;BME280;59983;52.010;5.420;2023-05-22T06:55:05;101510.63;;;17.78;100.00
72110;BME280;59983;52.010;5.420;2023-05-22T06:57:32;101511.00;;;17.76;100.00
72110;BME280;59983;52.010;5.420;2023-05-22T06:59:59;101512.22;;;17.82;100.00
72110;BME280;59983;52.010;5.420;2023-05-22T07:02:26;101515.81;;;17.90;100.00
72110;BME280;59983;52.010;5.420;2023-05-22T07:04:53;101515.88;;;17.94;100.00
72110;BME280;59983;52.010;5.420;2023-05-22T07:07:19;101517.94;;;18.07;100.00
72110;BME280;59983;52.010;5.420;2023-05-22T07:09:46;101522.69;;;18.14;100.00
72110;BME280;59983;52.010;5.420;2023-05-22T07:12:13;101519.19;;;18.17;100.00
72110;BME280;59983;52.010;5.420;2023-05-22T07:14:39;101522.00;;;18.28;100.00
72110;BME280;59983;52.010;5.420;2023-05-22T07:17:06;101524.84;;;18.38;100.00
72110;BME280;59983;52.010;5.420;2023-05-22T07:19:33;101524.94;;;18.49;100.00
72110;BME280;59983;52.010;5.420;2023-05-22T07:22:01;101524.97;;;18.56;100.00
72110;BME280;59983;52.010;5.420;2023-05-22T07:24:27;101521.94;;;18.72;100.00
72110;BME280;59983;52.010;5.420;2023-05-22T07:26:54;101520.38;;;18.71;100.00
72110;BME280;59983;52.010;5.420;2023-05-22T07:29:20;101527.47;;;18.79;100.00
72110;BME280;59983;52.010;5.420;2023-05-22T07:31:48;101526.75;;;18.89;100.00
72110;BME280;59983;52.010;5.420;2023-05-22T07:34:15;101524.81;;;18.93;100.00
72110;BME280;59983;52.010;5.420;2023-05-22T07:36:42;101524.44;;;18.99;100.00
72110;BME280;59983;52.010;5.420;2023-05-22T07:39:08;101533.94;;;19.15;100.00
72110;BME280;59983;52.010;5.420;2023-05-22T07:41:35;101529.63;;;19.14;100.00
72110;BME280;59983;52.010;5.420;2023-05-22T07:44:01;101533.97;;;19.22;100.00
72110;BME280;59983;52.010;5.420;2023-05-22T07:46:28;101527.69;;;19.25;100.00
72110;BME280;59983;52.010;5.420;2023-05-22T07:48:55;101525.78;;;19.37;100.00
72110;BME280;59983;52.010;5.420;2023-05-22T07:51:22;101522.66;;;19.49;100.00
72110;BME280;59983;52.010;5.420;2023-05-22T07:53:48;101523.13;;;19.58;100.00
72110;BME280;59983;52.010;5.420;2023-05-22T07:56:15;101526.28;;;19.64;100.00
72110;BME280;59983;52.010;5.420;2023-05-22T07:58:42;101525.53;;;19.70;100.00
72110;BME280;59983;52.010;5.420;2023-05-22T08:01:09;101530.63;;;19.72;100.00
72110;BME280;59983;52.010;5.420;2023-05-22T08:03:36;101531.41;;;19.76;100.00
72110;BME280;59983;52.010;5.420;2023-05-22T08:06:03;101523.56;;;19.85;100.00
72110;BME280;59983;52.010;5.420;2023-05-22T08:08:30;101530.66;;;20.00;100.00
72110;BME280;59983;52.010;5.420;2023-05-22T08:10:57;101538.16;;;20.07;100.00
72110;BME280;59983;52.010;5.420;2023-05-22T08:13:26;101546.03;;;20.16;99.10
72110;BME280;59983;52.010;5.420;2023-05-22T08:15:53;101543.25;;;20.19;98.22
72110;BME280;59983;52.010;5.420;2023-05-22T08:18:26;101551.13;;;20.24;99.59
72110;BME280;59983;52.010;5.420;2023-05-22T08:20:54;101543.63;;;20.28;97.72
72110;BME280;59983;52.010;5.420;2023-05-22T08:23:21;101548.75;;;20.41;98.05
72110;BME280;59983;52.010;5.420;2023-05-22T08:25:48;101545.22;;;20.54;97.66
72110;BME280;59983;52.010;5.420;2023-05-22T08:28:15;101543.28;;;20.58;95.90
72110;BME280;59983;52.010;5.420;2023-05-22T08:30:42;101546.00;;;20.55;95.41
72110;BME280;59983;52.010;5.420;2023-05-22T08:33:08;101551.13;;;20.63;96.03
72110;BME280;59983;52.010;5.420;2023-05-22T08:35:35;101538.50;;;20.77;95.44
72110;BME280;59983;52.010;5.420;2023-05-22T08:38:02;101543.19;;;20.87;94.93
72110;BME280;59983;52.010;5.420;2023-05-22T08:40:34;101535.25;;;21.07;92.99
72110;BME280;59983;52.010;5.420;2023-05-22T08:43:04;101537.63;;;21.05;91.71
72110;BME280;59983;52.010;5.420;2023-05-22T08:45:32;101531.75;;;20.88;94.17
72110;BME280;59983;52.010;5.420;2023-05-22T08:48:03;101528.97;;;21.03;95.37
72110;BME280;59983;52.010;5.420;2023-05-22T08:50:31;101527.78;;;21.04;93.71
72110;BME280;59983;52.010;5.420;2023-05-22T08:53:00;101519.91;;;20.91;93.28
72110;BME280;59983;52.010;5.420;2023-05-22T08:55:30;101523.50;;;20.81;92.94
72110;BME280;59983;52.010;5.420;2023-05-22T08:57:57;101537.31;;;20.78;92.53
72110;BME280;59983;52.010;5.420;2023-05-22T09:00:24;101530.97;;;20.84;92.67
72110;BME280;59983;52.010;5.420;2023-05-22T09:02:51;101527.38;;;21.02;92.71
72110;BME280;59983;52.010;5.420;2023-05-22T09:05:18;101524.97;;;21.11;91.84
72110;BME280;59983;52.010;5.420;2023-05-22T09:07:45;101520.53;;;21.42;90.04
72110;BME280;59983;52.010;5.420;2023-05-22T09:10:14;101516.81;;;21.70;89.10
72110;BME280;59983;52.010;5.420;2023-05-22T09:12:59;101515.81;;;22.01;88.34
72110;BME280;59983;52.010;5.420;2023-05-22T09:15:29;101523.50;;;22.28;88.71
72110;BME280;59983;52.010;5.420;2023-05-22T09:17:55;101521.34;;;22.46;86.02
72110;BME280;59983;52.010;5.420;2023-05-22T09:20:22;101514.63;;;22.47;86.14
72110;BME280;59983;52.010;5.420;2023-05-22T09:22:49;101509.03;;;22.54;85.38
72110;BME280;59983;52.010;5.420;2023-05-22T09:25:19;101508.41;;;22.74;84.90
72110;BME280;59983;52.010;5.420;2023-05-22T09:27:47;101508.34;;;22.81;85.14
72110;BME280;59983;52.010;5.420;2023-05-22T09:30:17;101514.78;;;22.71;86.20
72110;BME280;59983;52.010;5.420;2023-05-22T09:32:45;101515.41;;;22.85;85.26
72110;BME280;59983;52.010;5.420;2023-05-22T09:35:13;101510.59;;;22.93;83.84
72110;BME280;59983;52.010;5.420;2023-05-22T09:37:40;101509.38;;;22.98;84.43
72110;BME280;59983;52.010;5.420;2023-05-22T09:40:10;101510.72;;;22.79;83.65
72110;BME280;59983;52.010;5.420;2023-05-22T09:42:37;101506.84;;;22.73;79.91
72110;BME280;59983;52.010;5.420;2023-05-22T09:45:05;101505.78;;;22.63;79.71
72110;BME280;59983;52.010;5.420;2023-05-22T09:47:33;101503.41;;;22.99;80.90
72110;BME280;59983;52.010;5.420;2023-05-22T09:50:02;101504.50;;;23.36;79.85
72110;BME280;59983;52.010;5.420;2023-05-22T09:52:34;101504.25;;;23.54;80.32
72110;BME280;59983;52.010;5.420;2023-05-22T09:55:02;101496.81;;;23.47;81.18
72110;BME280;59983;52.010;5.420;2023-05-22T09:57:40;101503.47;;;23.26;79.16
72110;BME280;59983;52.010;5.420;2023-05-22T10:00:10;101496.13;;;23.12;82.30
72110;BME280;59983;52.010;5.420;2023-05-22T10:02:42;101495.03;;;23.06;79.80
72110;BME280;59983;52.010;5.420;2023-05-22T10:05:10;101497.44;;;23.31;77.52
72110;BME280;59983;52.010;5.420;2023-05-22T10:08:01;101491.56;;;23.56;77.87
72110;BME280;59983;52.010;5.420;2023-05-22T10:10:30;101498.94;;;23.66;74.47
72110;BME280;59983;52.010;5.420;2023-05-22T10:13:04;101491.19;;;23.81;76.47
72110;BME280;59983;52.010;5.420;2023-05-22T10:15:31;101483.06;;;23.94;73.33
72110;BME280;59983;52.010;5.420;2023-05-22T10:17:59;101491.34;;;23.97;74.88
72110;BME280;59983;52.010;5.420;2023-05-22T10:20:27;101494.22;;;24.14;71.44
72110;BME280;59983;52.010;5.420;2023-05-22T10:22:55;101485.19;;;24.10;71.10
72110;BME280;59983;52.010;5.420;2023-05-22T10:25:22;101484.63;;;24.18;73.15
72110;BME280;59983;52.010;5.420;2023-05-22T10:27:51;101489.72;;;24.23;73.29
72110;BME280;59983;52.010;5.420;2023-05-22T10:33:16;101487.44;;;23.95;75.05
72110;BME280;59983;52.010;5.420;2023-05-22T10:36:06;101476.91;;;23.83;75.92
72110;BME280;59983;52.010;5.420;2023-05-22T10:39:01;101482.75;;;23.65;75.47
72110;BME280;59983;52.010;5.420;2023-05-22T10:41:30;101482.56;;;23.76;77.91
72110;BME280;59983;52.010;5.420;2023-05-22T10:43:57;101480.78;;;23.89;76.85
72110;BME280;59983;52.010;5.420;2023-05-22T10:46:23;101484.00;;;23.87;77.98
72110;BME280;59983;52.010;5.420;2023-05-22T10:48:52;101476.22;;;23.79;76.13
72110;BME280;59983;52.010;5.420;2023-05-22T10:51:21;101476.22;;;23.79;79.07
72110;BME280;59983;52.010;5.420;2023-05-22T10:53:55;101476.22;;;23.79;76.29
72110;BME280;59983;52.010;5.420;2023-05-22T10:56:24;101476.56;;;23.81;76.35
72110;BME280;59983;52.010;5.420;2023-05-22T10:58:59;101477.59;;;23.90;76.60
72110;BME280;59983;52.010;5.420;2023-05-22T11:01:31;101479.16;;;23.91;77.75
72110;BME280;59983;52.010;5.420;2023-05-22T11:09:01;101476.81;;;24.13;75.58
72110;BME280;59983;52.010;5.420;2023-05-22T11:11:41;101472.63;;;24.25;75.47
72110;BME280;59983;52.010;5.420;2023-05-22T11:14:10;101478.19;;;24.25;75.12
72110;BME280;59983;52.010;5.420;2023-05-22T11:16:38;101481.09;;;23.94;74.30
72110;BME280;59983;52.010;5.420;2023-05-22T11:19:06;101469.22;;;23.70;75.46
72110;BME280;59983;52.010;5.420;2023-05-22T11:21:48;101485.31;;;23.49;76.66
72110;BME280;59983;52.010;5.420;2023-05-22T11:24:15;101476.34;;;23.41;77.72
72110;BME280;59983;52.010;5.420;2023-05-22T11:26:43;101474.38;;;23.41;79.43
72110;BME280;59983;52.010;5.420;2023-05-22T11:29:17;101470.34;;;23.46;77.40
72110;BME280;59983;52.010;5.420;2023-05-22T11:31:44;101473.91;;;23.46;78.31
72110;BME280;59983;52.010;5.420;2023-05-22T11:34:11;101474.31;;;23.45;78.99
72110;BME280;59983;52.010;5.420;2023-05-22T11:36:38;101480.28;;;23.43;80.03
72110;BME280;59983;52.010;5.420;2023-05-22T11:39:05;101468.59;;;23.32;79.68
72110;BME280;59983;52.010;5.420;2023-05-22T11:41:32;101474.25;;;23.49;81.57
72110;BME280;59983;52.010;5.420;2023-05-22T11:44:00;101464.91;;;23.66;79.66
72110;BME280;59983;52.010;5.420;2023-05-22T11:46:26;101462.34;;;23.79;78.50
72110;BME280;59983;52.010;5.420;2023-05-22T11:48:55;101461.25;;;24.19;76.47
72110;BME280;59983;52.010;5.420;2023-05-22T11:51:22;101459.47;;;24.52;73.83
72110;BME280;59983;52.010;5.420;2023-05-22T11:53:49;101460.75;;;24.68;74.18
72110;BME280;59983;52.010;5.420;2023-05-22T11:56:18;101460.19;;;24.76;73.21
72110;BME280;59983;52.010;5.420;2023-05-22T11:58:49;101456.75;;;24.89;74.44
72110;BME280;59983;52.010;5.420;2023-05-22T12:01:17;101453.50;;;24.54;73.34
72110;BME280;59983;52.010;5.420;2023-05-22T12:03:43;101458.06;;;24.21;74.67
72110;BME280;59983;52.010;5.420;2023-05-22T12:06:10;101456.84;;;24.45;73.79
72110;BME280;59983;52.010;5.420;2023-05-22T12:08:37;101462.53;;;24.58;73.14
72110;BME280;59983;52.010;5.420;2023-05-22T12:11:04;101457.59;;;24.46;71.32
72110;BME280;59983;52.010;5.420;2023-05-22T12:13:32;101459.84;;;24.31;71.30
72110;BME280;59983;52.010;5.420;2023-05-22T12:15:59;101458.47;;;24.19;73.24
72110;BME280;59983;52.010;5.420;2023-05-22T12:18:32;101449.72;;;24.64;73.84
72110;BME280;59983;52.010;5.420;2023-05-22T12:21:00;101453.75;;;25.19;71.88
72110;BME280;59983;52.010;5.420;2023-05-22T12:23:27;101452.22;;;25.51;69.51
72110;BME280;59983;52.010;5.420;2023-05-22T12:26:07;101454.44;;;25.76;70.81
72110;BME280;59983;52.010;5.420;2023-05-22T12:28:34;101443.81;;;25.87;67.21
72110;BME280;59983;52.010;5.420;2023-05-22T12:31:00;101447.41;;;25.71;64.09
72110;BME280;59983;52.010;5.420;2023-05-22T12:33:28;101452.00;;;25.25;66.49
72110;BME280;59983;52.010;5.420;2023-05-22T12:35:55;101459.72;;;24.98;67.43
72110;BME280;59983;52.010;5.420;2023-05-22T12:38:29;101454.53;;;25.00;67.64
72110;BME280;59983;52.010;5.420;2023-05-22T12:40:58;101447.72;;;25.57;67.20
72110;BME280;59983;52.010;5.420;2023-05-22T12:43:25;101436.88;;;25.95;63.65
72110;BME280;59983;52.010;5.420;2023-05-22T12:45:52;101443.41;;;26.34;64.13
72110;BME280;59983;52.010;5.420;2023-05-22T12:48:19;101440.34;;;26.44;64.03
72110;BME280;59983;52.010;5.420;2023-05-22T12:50:46;101439.59;;;26.57;63.80
72110;BME280;59983;52.010;5.420;2023-05-22T12:53:12;101436.09;;;26.23;65.46
72110;BME280;59983;52.010;5.420;2023-05-22T12:55:39;101434.84;;;26.12;63.86
72110;BME280;59983;52.010;5.420;2023-05-22T12:58:06;101440.56;;;26.50;62.60
72110;BME280;59983;52.010;5.420;2023-05-22T13:00:33;101438.16;;;26.36;63.36
72110;BME280;59983;52.010;5.420;2023-05-22T13:03:00;101434.84;;;26.12;62.73